sensor_id;sensor_type;location;lat;lon;timestamp;P1;durP1;ratioP1;P2;durP2;ratioP2
35394;SDS011;21500;45.308;9.488;2023-07-31T05:41:58;15.57;;;14.05;;
35394;SDS011;21500;45.308;9.488;2023-07-31T05:44:23;17.13;;;13.68;;
35394;SDS011;21500;45.308;9.488;2023-07-31T05:46:49;15.32;;;13.93;;
35394;SDS011;21500;45.308;9.488;2023-07-31T05:49:15;16.10;;;14.50;;
35394;SDS011;21500;45.308;9.488;2023-07-31T05:51:41;16.20;;;14.70;;
35394;SDS011;21500;45.308;9.488;2023-07-31T05:54:07;15.88;;;14.32;;
35394;SDS011;21500;45.308;9.488;2023-07-31T05:56:32;15.05;;;13.30;;
35394;SDS011;21500;45.308;9.488;2023-07-31T05:58:59;12.32;;;11.18;;
35394;SDS011;21500;45.308;9.488;2023-07-31T06:01:25;14.18;;;12.90;;
35394;SDS011;21500;45.308;9.488;2023-07-31T06:03:50;14.82;;;12.95;;
35394;SDS011;21500;45.308;9.488;2023-07-31T06:06:19;15.60;;;13.55;;
35394;SDS011;21500;45.308;9.488;2023-07-31T06:08:45;14.68;;;13.27;;
35394;SDS011;21500;45.308;9.488;2023-07-31T06:11:11;12.77;;;11.68;;
35394;SDS011;21500;45.308;9.488;2023-07-31T06:13:37;12.30;;;11.20;;
35394;SDS011;21500;45.308;9.488;2023-07-31T06:16:03;12.75;;;11.63;;
35394;SDS011;21500;45.308;9.488;2023-07-31T06:18:33;11.95;;;10.75;;
35394;SDS011;21500;45.308;9.488;2023-07-31T06:35:07;11.10;;;10.15;;
35394;SDS011;21500;45.308;9.488;2023-07-31T06:37:34;12.02;;;10.05;;
35394;SDS011;21500;45.308;9.488;2023-07-31T06:39:59;10.68;;;9.77;;
35394;SDS011;21500;45.308;9.488;2023-07-31T06:42:25;10.85;;;9.73;;
35394;SDS011;21500;45.308;9.488;2023-07-31T06:44:52;9.95;;;9.05;;
35394;SDS011;21500;45.308;9.488;2023-07-31T06:47:17;11.88;;;10.80;;
35394;SDS011;21500;45.308;9.488;2023-07-31T06:49:43;11.15;;;10.15;;
35394;SDS011;21500;45.308;9.488;2023-07-31T06:52:09;11.30;;;9.85;;
35394;SDS011;21500;45.308;9.488;2023-07-31T06:54:36;12.52;;;9.95;;
35394;SDS011;21500;45.308;9.488;2023-07-31T06:57:04;11.90;;;10.80;;
35394;SDS011;21500;45.308;9.488;2023-07-31T06:59:30;11.38;;;10.30;;
35394;SDS011;21500;45.308;9.488;2023-07-31T07:01:56;10.85;;;9.73;;
35394;SDS011;21500;45.308;9.488;2023-07-31T07:04:22;11.32;;;10.32;;
35394;SDS011;21500;45.308;9.488;2023-07-31T07:06:47;13.07;;;10.75;;
35394;SDS011;21500;45.308;9.488;2023-07-31T07:09:13;10.55;;;9.55;;
35394;SDS011;21500;45.308;9.488;2023-07-31T07:11:39;10.95;;;9.98;;
35394;SDS011;21500;45.308;9.488;2023-07-31T07:14:05;11.73;;;10.65;;
35394;SDS011;21500;45.308;9.488;2023-07-31T07:16:30;11.90;;;10.80;;
35394;SDS011;21500;45.308;9.488;2023-07-31T07:18:56;12.18;;;11.07;;
35394;SDS011;21500;45.308;9.488;2023-07-31T07:21:22;13.05;;;10.77;;
35394;SDS011;21500;45.308;9.488;2023-07-31T07:23:49;11.40;;;9.70;;
35394;SDS011;21500;45.308;9.488;2023-07-31T07:26:15;10.88;;;9.32;;
35394;SDS011;21500;45.308;9.488;2023-07-31T07:28:41;12.25;;;10.98;;
35394;SDS011;21500;45.308;9.488;2023-07-31T07:31:07;10.63;;;9.63;;
35394;SDS011;21500;45.308;9.488;2023-07-31T07:33:32;12.43;;;9.32;;
35394;SDS011;21500;45.308;9.488;2023-07-31T07:36:01;10.20;;;9.20;;
35394;SDS011;21500;45.308;9.488;2023-07-31T07:38:27;10.25;;;8.65;;
35394;SDS011;21500;45.308;9.488;2023-07-31T07:40:53;8.35;;;7.65;;
35394;SDS011;21500;45.308;9.488;2023-07-31T07:43:19;9.30;;;8.38;;
35394;SDS011;21500;45.308;9.488;2023-07-31T07:45:45;10.38;;;8.90;;
35394;SDS011;21500;45.308;9.488;2023-07-31T07:48:10;9.77;;;8.85;;
35394;SDS011;21500;45.308;9.488;2023-07-31T07:50:38;10.98;;;7.70;;
35394;SDS011;21500;45.308;9.488;2023-07-31T07:53:05;12.63;;;8.02;;
35394;SDS011;21500;45.308;9.488;2023-07-31T07:55:31;8.98;;;8.18;;
35394;SDS011;21500;45.308;9.488;2023-07-31T07:57:56;9.80;;;8.43;;
35394;SDS011;21500;45.308;9.488;2023-07-31T08:00:22;9.80;;;8.23;;
35394;SDS011;21500;45.308;9.488;2023-07-31T08:02:49;7.60;;;6.90;;
35394;SDS011;21500;45.308;9.488;2023-07-31T08:05:22;8.70;;;7.80;;
35394;SDS011;21500;45.308;9.488;2023-07-31T08:07:48;7.70;;;6.75;;
35394;SDS011;21500;45.308;9.488;2023-07-31T08:10:14;8.05;;;7.18;;
35394;SDS011;21500;45.308;9.488;2023-07-31T08:12:39;9.25;;;8.35;;
35394;SDS011;21500;45.308;9.488;2023-07-31T08:15:05;9.50;;;6.75;;
35394;SDS011;21500;45.308;9.488;2023-07-31T08:17:49;8.00;;;7.18;;
35394;SDS011;21500;45.308;9.488;2023-07-31T08:20:24;8.38;;;6.85;;
35394;SDS011;21500;45.308;9.488;2023-07-31T08:23:00;7.07;;;6.15;;
35394;SDS011;21500;45.308;9.488;2023-07-31T08:25:36;6.68;;;4.95;;
35394;SDS011;21500;45.308;9.488;2023-07-31T08:28:10;5.93;;;5.03;;
35394;SDS011;21500;45.308;9.488;2023-07-31T08:30:53;5.72;;;4.32;;
35394;SDS011;21500;45.308;9.488;2023-07-31T08:33:19;4.90;;;3.88;;
35394;SDS011;21500;45.308;9.488;2023-07-31T09:32:40;4.80;;;4.40;;
35394;SDS011;21500;45.308;9.488;2023-07-31T10:15:21;4.07;;;3.67;;
35394;SDS011;21500;45.308;9.488;2023-07-31T10:17:55;5.25;;;3.47;;
35394;SDS011;21500;45.308;9.488;2023-07-31T10:25:49;4.28;;;3.33;;
35394;SDS011;21500;45.308;9.488;2023-07-31T10:28:17;3.60;;;3.30;;
35394;SDS011;21500;45.308;9.488;2023-07-31T10:34:34;4.32;;;3.20;;
35394;SDS011;21500;45.308;9.488;2023-07-31T10:49:44;4.20;;;3.38;;
35394;SDS011;21500;45.308;9.488;2023-07-31T10:52:21;3.42;;;3.03;;
35394;SDS011;21500;45.308;9.488;2023-07-31T10:54:55;5.68;;;3.90;;
35394;SDS011;21500;45.308;9.488;2023-07-31T10:57:50;6.25;;;4.50;;
35394;SDS011;21500;45.308;9.488;2023-07-31T11:07:48;3.53;;;3.17;;
35394;SDS011;21500;45.308;9.488;2023-07-31T11:10:19;4.32;;;3.53;;
35394;SDS011;21500;45.308;9.488;2023-07-31T11:12:48;5.18;;;4.15;;
35394;SDS011;21500;45.308;9.488;2023-07-31T11:15:18;3.25;;;2.72;;
35394;SDS011;21500;45.308;9.488;2023-07-31T11:17:55;3.75;;;3.08;;
35394;SDS011;21500;45.308;9.488;2023-07-31T11:20:39;3.97;;;3.58;;
35394;SDS011;21500;45.308;9.488;2023-07-31T11:24:12;3.90;;;3.60;;
35394;SDS011;21500;45.308;9.488;2023-07-31T11:26:50;5.07;;;3.38;;
35394;SDS011;21500;45.308;9.488;2023-07-31T11:30:11;5.32;;;2.63;;
35394;SDS011;21500;45.308;9.488;2023-07-31T11:32:51;5.78;;;3.83;;
35394;SDS011;21500;45.308;9.488;2023-07-31T11:36:05;4.50;;;2.42;;
35394;SDS011;21500;45.308;9.488;2023-07-31T11:48:24;5.18;;;3.25;;
35394;SDS011;21500;45.308;9.488;2023-07-31T18:00:32;3.85;;;2.25;;
35394;SDS011;21500;45.308;9.488;2023-07-31T18:27:13;3.20;;;2.90;;
35394;SDS011;21500;45.308;9.488;2023-07-31T18:30:02;4.50;;;3.47;;
35394;SDS011;21500;45.308;9.488;2023-07-31T18:33:06;5.80;;;2.97;;
35394;SDS011;21500;45.308;9.488;2023-07-31T18:38:50;9.77;;;3.10;;
35394;SDS011;21500;45.308;9.488;2023-07-31T18:41:28;2.90;;;2.58;;
35394;SDS011;21500;45.308;9.488;2023-07-31T18:43:58;5.90;;;2.83;;
35394;SDS011;21500;45.308;9.488;2023-07-31T18:46:32;3.20;;;2.90;;
35394;SDS011;21500;45.308;9.488;2023-07-31T18:51:43;3.40;;;3.03;;
35394;SDS011;21500;45.308;9.488;2023-07-31T19:36:28;3.92;;;3.47;;
35394;SDS011;21500;45.308;9.488;2023-07-31T19:38:53;5.50;;;3.60;;
35394;SDS011;21500;45.308;9.488;2023-07-31T19:41:20;5.88;;;3.50;;
35394;SDS011;21500;45.308;9.488;2023-07-31T19:43:46;5.28;;;3.75;;
35394;SDS011;21500;45.308;9.488;2023-07-31T19:46:12;4.72;;;3.17;;
35394;SDS011;21500;45.308;9.488;2023-07-31T19:48:38;5.63;;;4.18;;
35394;SDS011;21500;45.308;9.488;2023-07-31T19:51:04;4.55;;;3.33;;
35394;SDS011;21500;45.308;9.488;2023-07-31T19:53:29;3.60;;;3.30;;
35394;SDS011;21500;45.308;9.488;2023-07-31T19:55:55;9.77;;;3.33;;
35394;SDS011;21500;45.308;9.488;2023-07-31T19:58:22;4.93;;;3.30;;
35394;SDS011;21500;45.308;9.488;2023-07-31T20:00:48;3.65;;;3.35;;
35394;SDS011;21500;45.308;9.488;2023-07-31T20:03:14;4.60;;;2.90;;
35394;SDS011;21500;45.308;9.488;2023-07-31T20:05:40;4.85;;;3.65;;
35394;SDS011;21500;45.308;9.488;2023-07-31T20:08:06;9.52;;;4.07;;
35394;SDS011;21500;45.308;9.488;2023-07-31T20:10:32;5.40;;;3.33;;
35394;SDS011;21500;45.308;9.488;2023-07-31T20:12:59;4.70;;;3.55;;
35394;SDS011;21500;45.308;9.488;2023-07-31T20:15:25;3.65;;;3.35;;
35394;SDS011;21500;45.308;9.488;2023-07-31T20:17:50;3.92;;;3.55;;
35394;SDS011;21500;45.308;9.488;2023-07-31T20:20:16;7.00;;;3.95;;
35394;SDS011;21500;45.308;9.488;2023-07-31T20:22:42;4.43;;;3.95;;
35394;SDS011;21500;45.308;9.488;2023-07-31T20:25:08;6.65;;;4.55;;
35394;SDS011;21500;45.308;9.488;2023-07-31T20:27:34;4.78;;;4.18;;
35394;SDS011;21500;45.308;9.488;2023-07-31T20:30:00;6.30;;;5.03;;
35394;SDS011;21500;45.308;9.488;2023-07-31T20:32:26;5.43;;;4.53;;
35394;SDS011;21500;45.308;9.488;2023-07-31T20:34:51;5.25;;;4.55;;
35394;SDS011;21500;45.308;9.488;2023-07-31T20:37:18;6.03;;;5.30;;
35394;SDS011;21500;45.308;9.488;2023-07-31T20:39:44;4.95;;;4.47;;
35394;SDS011;21500;45.308;9.488;2023-07-31T20:42:09;6.25;;;5.32;;
35394;SDS011;21500;45.308;9.488;2023-07-31T20:44:39;6.10;;;5.30;;
35394;SDS011;21500;45.308;9.488;2023-07-31T20:47:05;6.13;;;5.53;;
35394;SDS011;21500;45.308;9.488;2023-07-31T20:49:31;8.25;;;5.68;;
35394;SDS011;21500;45.308;9.488;2023-07-31T20:51:57;6.72;;;6.13;;
35394;SDS011;21500;45.308;9.488;2023-07-31T20:54:23;7.10;;;6.35;;
35394;SDS011;21500;45.308;9.488;2023-07-31T20:56:49;7.10;;;6.50;;
35394;SDS011;21500;45.308;9.488;2023-07-31T20:59:18;9.45;;;6.68;;
35394;SDS011;21500;45.308;9.488;2023-07-31T21:01:44;7.38;;;6.72;;
35394;SDS011;21500;45.308;9.488;2023-07-31T21:04:10;7.47;;;6.72;;
35394;SDS011;21500;45.308;9.488;2023-07-31T21:06:37;7.72;;;7.03;;
35394;SDS011;21500;45.308;9.488;2023-07-31T21:09:03;7.18;;;6.47;;
35394;SDS011;21500;45.308;9.488;2023-07-31T21:11:29;7.45;;;6.75;;
35394;SDS011;21500;45.308;9.488;2023-07-31T21:13:58;7.10;;;6.32;;
35394;SDS011;21500;45.308;9.488;2023-07-31T21:16:24;7.80;;;6.78;;
35394;SDS011;21500;45.308;9.488;2023-07-31T21:18:50;8.85;;;7.25;;
35394;SDS011;21500;45.308;9.488;2023-07-31T21:21:18;7.60;;;6.22;;
35394;SDS011;21500;45.308;9.488;2023-07-31T21:23:45;7.82;;;6.72;;
35394;SDS011;21500;45.308;9.488;2023-07-31T21:26:11;9.27;;;6.70;;
35394;SDS011;21500;45.308;9.488;2023-07-31T21:28:36;8.60;;;7.78;;
35394;SDS011;21500;45.308;9.488;2023-07-31T21:31:09;8.05;;;7.32;;
35394;SDS011;21500;45.308;9.488;2023-07-31T21:33:39;10.35;;;7.03;;
35394;SDS011;21500;45.308;9.488;2023-07-31T21:36:05;8.02;;;7.32;;
35394;SDS011;21500;45.308;9.488;2023-07-31T21:38:31;10.48;;;9.35;;
35394;SDS011;21500;45.308;9.488;2023-07-31T21:40:57;10.68;;;8.63;;
35394;SDS011;21500;45.308;9.488;2023-07-31T21:43:23;9.77;;;8.77;;
35394;SDS011;21500;45.308;9.488;2023-07-31T21:45:49;9.48;;;8.50;;
35394;SDS011;21500;45.308;9.488;2023-07-31T21:48:16;9.15;;;8.35;;
35394;SDS011;21500;45.308;9.488;2023-07-31T21:50:42;8.60;;;7.80;;
35394;SDS011;21500;45.308;9.488;2023-07-31T21:53:08;9.30;;;8.35;;
35394;SDS011;21500;45.308;9.488;2023-07-31T21:55:34;16.02;;;8.80;;
35394;SDS011;21500;45.308;9.488;2023-07-31T21:58:00;9.45;;;8.63;;
35394;SDS011;21500;45.308;9.488;2023-07-31T22:00:26;9.48;;;8.63;;
35394;SDS011;21500;45.308;9.488;2023-07-31T22:02:52;9.30;;;8.50;;
35394;SDS011;21500;45.308;9.488;2023-07-31T22:05:19;10.55;;;8.88;;
35394;SDS011;21500;45.308;9.488;2023-07-31T22:07:45;9.55;;;8.57;;
35394;SDS011;21500;45.308;9.488;2023-07-31T22:10:11;10.38;;;9.38;;
35394;SDS011;21500;45.308;9.488;2023-07-31T22:12:36;9.73;;;8.85;;
35394;SDS011;21500;45.308;9.488;2023-07-31T22:15:04;9.75;;;8.75;;
35394;SDS011;21500;45.308;9.488;2023-07-31T22:17:30;9.60;;;8.70;;
35394;SDS011;21500;45.308;9.488;2023-07-31T22:19:56;10.23;;;9.23;;
35394;SDS011;21500;45.308;9.488;2023-07-31T22:22:22;11.07;;;9.43;;
35394;SDS011;21500;45.308;9.488;2023-07-31T22:24:48;9.80;;;8.82;;
35394;SDS011;21500;45.308;9.488;2023-07-31T22:27:15;10.73;;;9.15;;
35394;SDS011;21500;45.308;9.488;2023-07-31T22:29:41;11.10;;;9.80;;
35394;SDS011;21500;45.308;9.488;2023-07-31T22:32:07;10.68;;;9.68;;
35394;SDS011;21500;45.308;9.488;2023-07-31T22:34:33;11.35;;;10.20;;
35394;SDS011;21500;45.308;9.488;2023-07-31T22:36:59;11.20;;;10.30;;
35394;SDS011;21500;45.308;9.488;2023-07-31T22:39:25;12.65;;;11.30;;
35394;SDS011;21500;45.308;9.488;2023-07-31T22:41:51;10.63;;;9.73;;
35394;SDS011;21500;45.308;9.488;2023-07-31T22:44:16;11.70;;;10.60;;
35394;SDS011;21500;45.308;9.488;2023-07-31T22:46:42;12.85;;;11.68;;
35394;SDS011;21500;45.308;9.488;2023-07-31T22:49:08;12.20;;;10.93;;
35394;SDS011;21500;45.308;9.488;2023-07-31T22:51:34;12.70;;;11.57;;
35394;SDS011;21500;45.308;9.488;2023-07-31T22:53:59;13.57;;;12.35;;
35394;SDS011;21500;45.308;9.488;2023-07-31T22:56:25;13.07;;;11.85;;
35394;SDS011;21500;45.308;9.488;2023-07-31T22:58:51;11.13;;;10.13;;
35394;SDS011;21500;45.308;9.488;2023-07-31T23:01:16;12.02;;;11.02;;
35394;SDS011;21500;45.308;9.488;2023-07-31T23:03:43;11.93;;;10.93;;
35394;SDS011;21500;45.308;9.488;2023-07-31T23:06:09;13.48;;;11.80;;
35394;SDS011;21500;45.308;9.488;2023-07-31T23:08:35;12.25;;;11.15;;
35394;SDS011;21500;45.308;9.488;2023-07-31T23:11:01;12.55;;;11.25;;
35394;SDS011;21500;45.308;9.488;2023-07-31T23:13:27;12.20;;;11.10;;
35394;SDS011;21500;45.308;9.488;2023-07-31T23:15:53;11.15;;;10.15;;
35394;SDS011;21500;45.308;9.488;2023-07-31T23:18:19;12.02;;;10.15;;
35394;SDS011;21500;45.308;9.488;2023-07-31T23:20:48;12.15;;;11.05;;
35394;SDS011;21500;45.308;9.488;2023-07-31T23:23:16;14.63;;;11.57;;
35394;SDS011;21500;45.308;9.488;2023-07-31T23:25:42;10.70;;;9.70;;
35394;SDS011;21500;45.308;9.488;2023-07-31T23:28:10;13.02;;;11.77;;
35394;SDS011;21500;45.308;9.488;2023-07-31T23:30:36;12.57;;;11.30;;
35394;SDS011;21500;45.308;9.488;2023-07-31T23:33:02;12.40;;;11.18;;
35394;SDS011;21500;45.308;9.488;2023-07-31T23:35:30;13.13;;;11.95;;
35394;SDS011;21500;45.308;9.488;2023-07-31T23:37:56;14.40;;;12.98;;
35394;SDS011;21500;45.308;9.488;2023-07-31T23:40:23;13.95;;;12.65;;
35394;SDS011;21500;45.308;9.488;2023-07-31T23:42:50;13.68;;;12.40;;
35394;SDS011;21500;45.308;9.488;2023-07-31T23:45:16;14.25;;;12.85;;
35394;SDS011;21500;45.308;9.488;2023-07-31T23:47:43;14.13;;;12.70;;
35394;SDS011;21500;45.308;9.488;2023-07-31T23:50:09;13.80;;;12.07;;
35394;SDS011;21500;45.308;9.488;2023-07-31T23:52:38;14.90;;;13.00;;
35394;SDS011;21500;45.308;9.488;2023-07-31T23:55:05;13.65;;;12.35;;
35394;SDS011;21500;45.308;9.488;2023-07-31T23:57:31;12.80;;;11.63;;
35394;SDS011;21500;45.308;9.488;2023-07-31T23:59:58;15.30;;;13.15;;
